createdAt,value
2019-04-22T00:00:42.485Z,95.60
2019-04-22T00:01:20.637Z,95.70
2019-04-22T00:01:56.964Z,95.70
2019-04-22T00:02:26.477Z,95.70
2019-04-22T00:03:05.437Z,95.70
2019-04-22T00:03:43.461Z,95.80
2019-04-22T00:04:15.964Z,95.80
2019-04-22T00:04:58.956Z,95.90
2019-04-22T00:05:44.380Z,95.90
2019-04-22T00:06:17.755Z,95.90
2019-04-22T00:06:59.065Z,96.00
2019-04-22T00:07:40.293Z,96.00
2019-04-22T00:08:09.101Z,96.00
2019-04-22T00:08:46.304Z,96.10
2019-04-22T00:09:26.235Z,96.20
2019-04-22T00:10:03.089Z,96.20
2019-04-22T00:10:33.181Z,96.30
2019-04-22T00:11:13.186Z,96.30
2019-04-22T00:11:48.662Z,96.40
2019-04-22T00:12:20.418Z,96.50
2019-04-22T00:12:52.972Z,96.80
2019-04-22T00:13:35.350Z,97.00
2019-04-22T00:14:00.738Z,96.60
2019-04-22T00:14:35.112Z,96.70
2019-04-22T00:15:09.774Z,96.70
2019-04-22T00:15:43.829Z,96.80
2019-04-22T00:16:27.567Z,96.70
2019-04-22T00:16:58.554Z,96.70
2019-04-22T00:17:38.542Z,96.60
2019-04-22T00:18:13.335Z,96.60
2019-04-22T00:18:59.106Z,96.60
2019-04-22T00:19:35.984Z,97.00
2019-04-22T00:19:57.686Z,96.60
2019-04-22T00:20:30.673Z,96.60
2019-04-22T00:21:04.855Z,96.50
2019-04-22T00:21:41.431Z,96.50
2019-04-22T00:22:22.143Z,96.50
2019-04-22T00:22:47.894Z,96.50
2019-04-22T00:23:24.687Z,96.50
2019-04-22T00:23:59.126Z,96.40
2019-04-22T00:24:31.368Z,96.40
2019-04-22T00:25:14.508Z,96.50
2019-04-22T00:25:48.226Z,96.40
2019-04-22T00:26:23.692Z,96.40
2019-04-22T00:26:57.147Z,96.40
2019-04-22T00:27:33.870Z,96.40
2019-04-22T00:28:08.622Z,96.40
2019-04-22T00:28:44.051Z,96.30
2019-04-22T00:29:37.330Z,96.30
2019-04-22T00:29:59.372Z,96.30
2019-04-22T00:30:20.684Z,96.40
2019-04-22T00:31:03.139Z,96.40
2019-04-22T00:31:40.737Z,96.40
2019-04-22T00:32:25.274Z,96.40
2019-04-22T00:33:03.194Z,96.40
2019-04-22T00:33:38.868Z,96.40
2019-04-22T00:34:14.388Z,96.40
2019-04-22T00:34:51.320Z,96.50
2019-04-22T00:35:25.616Z,96.50
2019-04-22T00:36:02.789Z,96.50
2019-04-22T00:36:38.034Z,96.50
2019-04-22T00:37:11.007Z,96.50
2019-04-22T00:37:53.686Z,96.50
2019-04-22T00:38:24.008Z,96.50
2019-04-22T00:38:59.091Z,96.50
2019-04-22T00:39:35.915Z,96.60
2019-04-22T00:40:07.308Z,96.60
2019-04-22T00:40:44.617Z,96.70
2019-04-22T00:41:23.346Z,96.70
2019-04-22T00:41:57.046Z,96.80
2019-04-22T00:42:27.480Z,96.90
2019-04-22T00:43:10.061Z,97.00
2019-04-22T00:43:39.488Z,97.00
2019-04-22T00:44:19.051Z,97.10
2019-04-22T00:44:57.848Z,97.10
2019-04-22T00:45:27.034Z,97.20
2019-04-22T00:45:56.246Z,97.20
2019-04-22T00:46:43.207Z,97.20
2019-04-22T00:47:16.374Z,97.20
2019-04-22T00:47:43.575Z,97.20
2019-04-22T00:48:27.795Z,97.30
2019-04-22T00:49:47.997Z,97.20
2019-04-22T00:50:06.683Z,97.30
2019-04-22T00:51:01.685Z,97.30
2019-04-22T00:51:36.592Z,97.30
2019-04-22T00:52:01.198Z,97.30
2019-04-22T00:52:28.509Z,97.30
2019-04-22T00:53:03.945Z,97.30
2019-04-22T00:53:36.050Z,97.30
2019-04-22T00:54:10.679Z,97.40
2019-04-22T00:54:53.115Z,97.40
2019-04-22T00:56:00.739Z,97.40
2019-04-22T00:56:35.735Z,97.50
2019-04-22T00:57:19.984Z,97.50
2019-04-22T00:57:47.463Z,97.50
2019-04-22T00:58:24.640Z,97.90
2019-04-22T00:58:50.232Z,97.60
2019-04-22T00:59:29.792Z,97.70
2019-04-22T01:00:11.883Z,97.70
2019-04-22T01:00:44.435Z,97.70
2019-04-22T01:01:31.917Z,97.70
2019-04-22T01:01:53.990Z,97.80
2019-04-22T01:03:19.684Z,97.80
2019-04-22T01:03:46.230Z,97.90
2019-04-22T01:04:19.963Z,97.90
2019-04-22T01:05:00.751Z,97.90
2019-04-22T01:05:32.924Z,97.90
2019-04-22T01:05:56.853Z,97.90
2019-04-22T01:06:35.395Z,97.90
2019-04-22T01:07:11.536Z,97.90
2019-04-22T01:07:46.429Z,97.90
2019-04-22T01:08:25.394Z,98.00
2019-04-22T01:08:57.814Z,98.00
2019-04-22T01:09:32.611Z,98.00
2019-04-22T01:10:12.860Z,98.00
2019-04-22T01:10:48.008Z,98.00
2019-04-22T01:11:25.152Z,98.00
2019-04-22T01:11:53.675Z,98.00
2019-04-22T01:12:28.469Z,98.00
2019-04-22T01:13:08.152Z,98.00
2019-04-22T01:13:38.628Z,98.10
2019-04-22T01:14:13.089Z,98.00
2019-04-22T01:14:47.763Z,98.10
2019-04-22T01:15:27.602Z,98.10
2019-04-22T01:16:01.204Z,98.10
2019-04-22T01:16:48.893Z,98.10
2019-04-22T01:17:09.603Z,98.20
2019-04-22T01:17:49.489Z,98.20
2019-04-22T01:18:15.729Z,98.20
2019-04-22T01:18:55.541Z,98.20
2019-04-22T01:19:36.683Z,98.20
2019-04-22T01:20:16.278Z,98.10
2019-04-22T01:21:24.362Z,98.20
2019-04-22T01:21:45.082Z,98.10
2019-04-22T01:22:20.725Z,98.20
2019-04-22T01:23:00.514Z,98.20
2019-04-22T01:23:29.643Z,98.20
2019-04-22T01:24:05.861Z,98.20
2019-04-22T01:24:40.767Z,98.20
2019-04-22T01:25:15.974Z,98.20
2019-04-22T01:25:46.282Z,98.20
2019-04-22T01:26:25.527Z,98.20
2019-04-22T01:26:57.880Z,98.30
2019-04-22T01:27:30.967Z,98.30
2019-04-22T01:28:06.429Z,98.30
2019-04-22T01:28:39.248Z,98.30
2019-04-22T01:29:14.702Z,98.40
2019-04-22T01:29:48.957Z,98.40
2019-04-22T01:30:24.201Z,98.40
2019-04-22T01:30:55.693Z,98.50
2019-04-22T01:31:27.487Z,98.60
2019-04-22T01:31:58.204Z,98.60
2019-04-22T01:32:39.406Z,98.60
2019-04-22T01:33:16.306Z,98.60
2019-04-22T01:33:48.314Z,98.70
2019-04-22T01:34:33.121Z,98.70
2019-04-22T01:35:05.932Z,98.70
2019-04-22T01:35:38.595Z,98.80
2019-04-22T01:36:24.640Z,98.90
2019-04-22T01:36:57.669Z,98.90
2019-04-22T01:37:28.855Z,98.90
2019-04-22T01:38:04.271Z,99.00
2019-04-22T01:38:45.654Z,99.00
2019-04-22T01:39:25.836Z,99.10
2019-04-22T01:40:08.452Z,99.10
2019-04-22T01:40:38.508Z,99.10
2019-04-22T01:41:20.191Z,99.20
2019-04-22T01:41:48.892Z,99.20
2019-04-22T01:42:22.205Z,99.20
2019-04-22T01:43:03.807Z,99.30
2019-04-22T01:43:35.044Z,99.20
2019-04-22T01:44:16.442Z,99.20
2019-04-22T01:44:40.342Z,99.30
2019-04-22T01:45:13.900Z,99.30
2019-04-22T01:45:53.301Z,99.30
2019-04-22T01:46:25.898Z,99.30
2019-04-22T01:46:58.457Z,99.40
2019-04-22T01:47:36.495Z,99.40
2019-04-22T01:48:10.367Z,99.40
2019-04-22T01:48:52.452Z,99.40
2019-04-22T01:49:25.746Z,99.40
2019-04-22T01:49:57.950Z,99.40
2019-04-22T01:50:31.802Z,99.40
2019-04-22T01:51:01.393Z,99.40
2019-04-22T01:51:54.636Z,99.40
2019-04-22T01:52:15.787Z,99.40
2019-04-22T01:53:01.982Z,99.40
2019-04-22T01:53:31.369Z,99.40
2019-04-22T01:54:05.569Z,99.40
2019-04-22T01:54:40.031Z,99.30
2019-04-22T01:55:17.482Z,99.30
2019-04-22T01:56:24.518Z,99.20
2019-04-22T01:56:57.135Z,99.30
2019-04-22T01:57:28.500Z,99.30
2019-04-22T01:58:08.560Z,99.30
2019-04-22T01:58:42.279Z,99.30
2019-04-22T01:59:12.507Z,99.30
2019-04-22T01:59:45.699Z,99.30
2019-04-22T02:00:25.462Z,99.20
2019-04-22T02:01:09.716Z,99.20
2019-04-22T02:01:48.448Z,99.20
2019-04-22T02:02:16.205Z,99.10
2019-04-22T02:02:53.231Z,99.10
2019-04-22T02:03:28.993Z,99.10
2019-04-22T02:04:01.526Z,99.10
2019-04-22T02:04:39.287Z,99.10
2019-04-22T02:05:14.608Z,99.10
2019-04-22T02:05:44.210Z,99.10
2019-04-22T02:06:21.895Z,99.10
2019-04-22T02:06:59.467Z,99.10
2019-04-22T02:07:32.128Z,99.00
2019-04-22T02:08:09.670Z,99.00
2019-04-22T02:08:44.679Z,99.00
2019-04-22T02:09:52.928Z,99.00
2019-04-22T02:10:30.123Z,99.00
2019-04-22T02:11:00.764Z,99.00
2019-04-22T02:11:42.678Z,99.00
2019-04-22T02:12:17.292Z,98.90
2019-04-22T02:12:48.550Z,98.90
2019-04-22T02:13:23.724Z,98.90
2019-04-22T02:13:59.174Z,99.30
2019-04-22T02:14:33.100Z,98.90
2019-04-22T02:15:06.334Z,98.90
2019-04-22T02:15:45.905Z,98.90
2019-04-22T02:16:14.219Z,98.90
2019-04-22T02:16:56.977Z,98.90
2019-04-22T02:17:31.605Z,98.80
2019-04-22T02:18:01.331Z,98.80
2019-04-22T02:18:39.392Z,98.80
2019-04-22T02:19:19.023Z,98.80
2019-04-22T02:19:53.232Z,98.80
2019-04-22T02:20:26.777Z,98.70
2019-04-22T02:20:59.627Z,98.70
2019-04-22T02:21:30.176Z,98.70
2019-04-22T02:22:07.073Z,98.70
2019-04-22T02:23:18.985Z,98.70
2019-04-22T02:24:10.790Z,98.60
2019-04-22T02:24:59.160Z,98.60
2019-04-22T02:25:28.487Z,98.60
2019-04-22T02:26:12.660Z,98.60
2019-04-22T02:26:40.273Z,98.60
2019-04-22T02:27:19.716Z,98.60
2019-04-22T02:27:56.521Z,98.50
2019-04-22T02:29:01.556Z,98.50
2019-04-22T02:30:05.389Z,98.40
2019-04-22T02:31:01.936Z,98.40
2019-04-22T02:31:38.076Z,98.40
2019-04-22T02:33:08.187Z,98.40
2019-04-22T02:33:25.222Z,98.40
2019-04-22T02:34:29.718Z,98.30
2019-04-22T02:35:07.576Z,98.30
2019-04-22T02:35:48.608Z,98.30
2019-04-22T02:37:46.264Z,98.20
2019-04-22T02:38:46.630Z,98.20
2019-04-22T02:39:07.926Z,98.10
2019-04-22T02:40:19.504Z,98.00
2019-04-22T02:41:08.757Z,98.00
2019-04-22T02:41:54.757Z,98.00
2019-04-22T02:42:29.616Z,98.00
2019-04-22T02:43:19.240Z,98.00
2019-04-22T02:45:42.179Z,97.80
2019-04-22T02:47:15.671Z,97.80
2019-04-22T02:47:51.970Z,97.80
2019-04-22T02:49:37.848Z,97.80
2019-04-22T02:50:10.657Z,97.80
2019-04-22T02:50:43.923Z,97.80
2019-04-22T02:52:33.274Z,97.70
2019-04-22T02:53:26.717Z,97.70
2019-04-22T02:54:34.350Z,97.60
2019-04-22T02:54:54.782Z,97.50
2019-04-22T02:55:27.548Z,97.50
2019-04-22T02:56:17.349Z,97.40
2019-04-22T02:56:35.932Z,97.40
2019-04-22T02:57:57.666Z,97.40
2019-04-22T02:58:30.816Z,97.30
2019-04-22T02:59:05.820Z,97.30
2019-04-22T02:59:35.986Z,97.30
2019-04-22T03:00:44.411Z,97.20
2019-04-22T03:01:25.672Z,97.20
2019-04-22T03:02:06.261Z,97.10
2019-04-22T03:02:45.983Z,97.10
2019-04-22T03:03:54.504Z,97.10
2019-04-22T03:04:16.076Z,97.10
2019-04-22T03:04:43.756Z,97.10
2019-04-22T03:05:27.729Z,97.10
2019-04-22T03:06:05.240Z,97.10
2019-04-22T03:07:05.419Z,97.00
2019-04-22T03:07:50.569Z,97.10
2019-04-22T03:09:31.670Z,97.10
2019-04-22T03:10:16.111Z,97.10
2019-04-22T03:10:47.326Z,97.10
2019-04-22T03:11:58.673Z,97.10
2019-04-22T03:13:06.650Z,97.00
2019-04-22T03:13:51.130Z,97.00
2019-04-22T03:14:04.742Z,97.00
2019-04-22T03:14:46.240Z,97.00
2019-04-22T03:15:15.058Z,97.00
2019-04-22T03:16:08.417Z,97.00
2019-04-22T03:17:06.128Z,97.00
2019-04-22T03:17:38.955Z,97.00
2019-04-22T03:18:20.057Z,97.00
2019-04-22T03:18:57.390Z,97.00
2019-04-22T03:20:33.494Z,97.00
2019-04-22T03:21:14.671Z,96.90
2019-04-22T03:21:47.006Z,96.90
2019-04-22T03:23:05.868Z,96.80
2019-04-22T03:25:25.802Z,96.80
2019-04-22T03:27:00.651Z,96.80
2019-04-22T03:28:08.791Z,96.80
2019-04-22T03:28:51.163Z,96.80
2019-04-22T03:29:57.268Z,96.80
2019-04-22T03:31:31.729Z,96.90
2019-04-22T03:33:11.062Z,96.90
2019-04-22T03:34:55.455Z,96.90
2019-04-22T03:35:37.683Z,96.90
2019-04-22T03:36:51.474Z,96.80
2019-04-22T03:37:03.948Z,96.80
2019-04-22T03:38:19.374Z,96.60
2019-04-22T03:39:45.637Z,96.50
2019-04-22T03:41:31.253Z,96.50
2019-04-22T03:43:03.887Z,96.50
2019-04-22T03:43:42.514Z,96.50
2019-04-22T03:44:32.017Z,96.50
2019-04-22T03:45:46.444Z,96.40
2019-04-22T03:46:31.664Z,96.40
2019-04-22T03:47:52.827Z,96.40
2019-04-22T03:48:16.009Z,96.40
2019-04-22T03:49:02.000Z,96.30
2019-04-22T03:49:51.956Z,96.40
2019-04-22T03:50:17.420Z,96.40
2019-04-22T03:51:27.611Z,96.40
2019-04-22T03:52:00.335Z,96.30
2019-04-22T03:53:03.686Z,96.30
2019-04-22T03:53:33.069Z,96.30
2019-04-22T03:54:25.624Z,96.30
2019-04-22T03:55:52.254Z,96.30
2019-04-22T03:57:33.936Z,96.20
2019-04-22T03:58:11.062Z,96.10
2019-04-22T03:58:58.745Z,96.10
2019-04-22T03:59:39.941Z,96.10
2019-04-22T04:00:15.568Z,96.10
2019-04-22T04:01:21.750Z,96.50
2019-04-22T04:01:52.980Z,96.10
2019-04-22T04:02:30.114Z,96.10
2019-04-22T04:03:04.630Z,96.10
2019-04-22T04:03:36.335Z,96.10
2019-04-22T04:04:09.676Z,96.10
2019-04-22T04:05:33.609Z,96.10
2019-04-22T04:05:54.214Z,96.10
2019-04-22T04:06:41.564Z,96.00
2019-04-22T04:08:55.470Z,96.00
2019-04-22T04:09:24.046Z,96.00
2019-04-22T04:10:10.330Z,95.90
2019-04-22T04:11:20.550Z,95.90
2019-04-22T04:13:00.508Z,95.90
2019-04-22T04:13:24.801Z,95.90
2019-04-22T04:14:13.860Z,95.90
2019-04-22T04:14:47.167Z,95.90
2019-04-22T04:15:41.022Z,95.80
2019-04-22T04:16:29.926Z,95.80
2019-04-22T04:17:29.388Z,95.90
2019-04-22T04:17:40.730Z,95.90
2019-04-22T04:18:13.295Z,95.90
2019-04-22T04:18:58.142Z,95.90
2019-04-22T04:19:31.364Z,95.80
2019-04-22T04:20:07.469Z,95.80
2019-04-22T04:20:36.431Z,95.80
2019-04-22T04:22:59.035Z,95.90
2019-04-22T04:23:50.529Z,95.80
2019-04-22T04:24:16.066Z,95.80
2019-04-22T04:25:35.516Z,95.70
2019-04-22T04:25:48.257Z,95.70
2019-04-22T04:26:26.436Z,95.70
2019-04-22T04:27:15.289Z,95.70
2019-04-22T04:28:50.305Z,96.00
2019-04-22T04:29:36.177Z,95.70
2019-04-22T04:30:05.190Z,95.70
2019-04-22T04:30:29.609Z,95.70
2019-04-22T04:31:04.705Z,95.70
2019-04-22T04:32:26.899Z,95.60
2019-04-22T04:33:23.296Z,95.50
2019-04-22T04:35:07.684Z,95.50
2019-04-22T04:35:50.202Z,95.30
2019-04-22T04:36:23.155Z,95.30
2019-04-22T04:37:25.338Z,95.30
2019-04-22T04:37:42.573Z,95.30
2019-04-22T04:38:19.085Z,95.20
2019-04-22T04:38:51.905Z,95.20
2019-04-22T04:39:53.474Z,95.20
2019-04-22T04:40:26.855Z,95.20
2019-04-22T04:40:57.852Z,95.20
2019-04-22T04:42:27.308Z,95.10
2019-04-22T04:42:47.853Z,95.10
2019-04-22T04:43:16.305Z,95.10
2019-04-22T04:44:11.219Z,95.10
2019-04-22T04:44:59.360Z,95.10
2019-04-22T04:47:39.028Z,95.00
2019-04-22T04:47:57.944Z,95.00
2019-04-22T04:48:42.858Z,95.00
2019-04-22T04:49:23.985Z,95.00
2019-04-22T04:51:11.835Z,94.70
2019-04-22T04:51:33.636Z,94.80
2019-04-22T04:52:06.706Z,94.70
2019-04-22T04:53:58.222Z,94.60
2019-04-22T04:54:30.527Z,94.60
2019-04-22T04:55:09.718Z,94.70
2019-04-22T04:55:36.163Z,94.80
2019-04-22T04:56:29.664Z,94.70
2019-04-22T04:56:44.546Z,94.70
2019-04-22T04:57:31.180Z,94.70
2019-04-22T04:58:10.013Z,94.70
2019-04-22T04:58:55.808Z,94.70
2019-04-22T04:59:16.343Z,94.70
2019-04-22T05:00:25.787Z,94.70
2019-04-22T05:02:06.517Z,94.70
2019-04-22T05:03:10.411Z,94.60
2019-04-22T05:03:10.420Z,94.60
2019-04-22T05:03:57.231Z,94.60
2019-04-22T05:04:26.629Z,94.60
2019-04-22T05:05:02.698Z,94.50
2019-04-22T05:06:05.844Z,94.40
2019-04-22T05:07:30.779Z,94.30
2019-04-22T05:08:38.996Z,94.40
2019-04-22T05:09:11.694Z,94.40
2019-04-22T05:09:51.693Z,94.40
2019-04-22T05:11:29.271Z,94.30
2019-04-22T05:12:46.910Z,94.30
2019-04-22T05:13:49.257Z,94.20
2019-04-22T05:14:17.241Z,94.20
2019-04-22T05:15:00.387Z,94.30
2019-04-22T05:15:51.113Z,94.30
2019-04-22T05:16:20.394Z,94.30
2019-04-22T05:16:42.919Z,94.30
2019-04-22T05:17:12.929Z,94.20
2019-04-22T05:17:54.283Z,94.20
2019-04-22T05:18:20.808Z,94.30
2019-04-22T05:19:05.508Z,94.20
2019-04-22T05:19:33.111Z,94.20
2019-04-22T05:20:12.871Z,94.10
2019-04-22T05:20:55.547Z,94.10
2019-04-22T05:21:53.318Z,94.00
2019-04-22T05:22:27.993Z,94.00
2019-04-22T05:23:01.035Z,94.00
2019-04-22T05:23:37.444Z,94.20
2019-04-22T05:24:19.418Z,94.10
2019-04-22T05:24:42.573Z,94.00
2019-04-22T05:25:25.245Z,93.90
2019-04-22T05:25:57.647Z,93.90
2019-04-22T05:26:32.544Z,94.00
2019-04-22T05:27:13.337Z,93.90
2019-04-22T05:27:41.185Z,93.90
2019-04-22T05:28:18.876Z,93.90
2019-04-22T05:28:49.917Z,93.80
2019-04-22T05:29:35.082Z,93.80
2019-04-22T05:30:21.511Z,94.10
2019-04-22T05:30:35.384Z,93.60
2019-04-22T05:31:15.418Z,93.50
2019-04-22T05:31:52.147Z,93.60
2019-04-22T05:32:24.430Z,93.60
2019-04-22T05:32:54.166Z,93.60
2019-04-22T05:33:30.331Z,93.50
2019-04-22T05:34:09.660Z,93.40
2019-04-22T05:34:40.218Z,93.40
2019-04-22T05:35:16.465Z,93.40
2019-04-22T05:35:56.349Z,93.30
2019-04-22T05:36:29.773Z,93.30
2019-04-22T05:37:01.147Z,93.20
2019-04-22T05:37:38.416Z,93.20
2019-04-22T05:38:17.264Z,93.20
2019-04-22T05:38:47.668Z,93.10
2019-04-22T05:39:17.277Z,93.10
2019-04-22T05:39:56.342Z,93.00
2019-04-22T05:40:29.316Z,93.00
2019-04-22T05:41:14.264Z,93.00
2019-04-22T05:41:43.167Z,93.10
2019-04-22T05:42:21.763Z,93.30
2019-04-22T05:42:49.427Z,92.90
2019-04-22T05:43:30.992Z,92.80
2019-04-22T05:44:04.973Z,92.80
2019-04-22T05:44:47.743Z,92.80
2019-04-22T05:45:15.826Z,92.60
2019-04-22T05:45:49.450Z,92.60
2019-04-22T05:46:22.441Z,92.70
2019-04-22T05:46:54.460Z,92.40
2019-04-22T05:47:32.009Z,92.50
2019-04-22T05:48:29.554Z,92.50
2019-04-22T05:48:43.923Z,92.60
2019-04-22T05:49:23.532Z,92.60
2019-04-22T05:49:48.322Z,92.40
2019-04-22T05:50:23.979Z,92.20
2019-04-22T05:51:02.402Z,92.30
2019-04-22T05:52:14.554Z,92.40
2019-04-22T05:52:55.251Z,92.30
2019-04-22T05:53:27.677Z,92.30
2019-04-22T05:54:08.644Z,92.30
2019-04-22T05:54:41.106Z,92.10
2019-04-22T05:55:16.142Z,91.90
2019-04-22T05:55:55.499Z,92.10
2019-04-22T05:56:33.886Z,92.20
2019-04-22T05:57:06.569Z,92.10
2019-04-22T05:57:33.035Z,92.10
2019-04-22T05:58:15.188Z,92.10
2019-04-22T05:58:53.614Z,92.00
2019-04-22T05:59:24.367Z,91.80
2019-04-22T06:00:01.611Z,91.80
2019-04-22T06:02:33.350Z,91.80
2019-04-22T06:02:56.661Z,91.70
2019-04-22T06:03:32.159Z,91.60
2019-04-22T06:04:44.902Z,91.60
2019-04-22T06:05:17.180Z,91.50
2019-04-22T06:05:47.639Z,91.50
2019-04-22T06:06:23.825Z,91.50
2019-04-22T06:07:04.309Z,91.60
2019-04-22T06:07:40.312Z,91.60
2019-04-22T06:08:11.873Z,91.60
2019-04-22T06:08:51.281Z,91.60
2019-04-22T06:09:24.586Z,91.50
2019-04-22T06:10:06.603Z,91.60
2019-04-22T06:11:16.887Z,91.20
2019-04-22T06:11:36.219Z,91.40
2019-04-22T06:12:19.341Z,91.40
2019-04-22T06:12:58.196Z,91.60
2019-04-22T06:13:27.627Z,91.60
2019-04-22T06:14:12.374Z,91.60
2019-04-22T06:14:50.647Z,91.30
2019-04-22T06:15:18.385Z,91.40
2019-04-22T06:15:58.707Z,91.40
2019-04-22T06:16:41.266Z,91.30
2019-04-22T06:17:11.100Z,91.30
2019-04-22T06:17:53.072Z,91.30
2019-04-22T06:18:56.895Z,91.30
2019-04-22T06:19:31.333Z,91.20
2019-04-22T06:20:03.871Z,91.20
2019-04-22T06:20:45.508Z,91.20
2019-04-22T06:21:18.688Z,91.00
2019-04-22T06:21:48.688Z,90.80
2019-04-22T06:22:37.655Z,90.60
2019-04-22T06:23:04.534Z,90.80
2019-04-22T06:23:40.275Z,90.90
2019-04-22T06:24:16.725Z,90.80
2019-04-22T06:24:49.138Z,90.60
2019-04-22T06:25:27.600Z,90.60
2019-04-22T06:26:46.197Z,90.40
2019-04-22T06:27:16.002Z,90.40
2019-04-22T06:27:52.413Z,90.40
2019-04-22T06:28:31.968Z,90.40
2019-04-22T06:28:54.862Z,90.40
2019-04-22T06:29:31.985Z,90.40
2019-04-22T06:30:04.274Z,90.40
2019-04-22T06:30:46.644Z,90.30
2019-04-22T06:31:23.032Z,90.20
2019-04-22T06:32:11.766Z,90.20
2019-04-22T06:33:04.124Z,90.00
2019-04-22T06:33:34.757Z,90.00
2019-04-22T06:34:42.226Z,89.30
2019-04-22T06:35:37.932Z,89.80
2019-04-22T06:35:56.387Z,90.00
2019-04-22T06:36:33.488Z,90.00
2019-04-22T06:37:07.637Z,89.60
2019-04-22T06:37:43.426Z,90.00
2019-04-22T06:38:46.222Z,89.20
2019-04-22T06:39:28.217Z,88.80
2019-04-22T06:39:58.855Z,88.70
2019-04-22T06:41:16.467Z,88.50
2019-04-22T06:41:56.641Z,88.10
2019-04-22T06:42:26.624Z,87.50
2019-04-22T06:43:01.092Z,87.80
2019-04-22T06:44:16.223Z,87.70
2019-04-22T06:44:50.013Z,87.80
2019-04-22T06:45:20.045Z,87.70
2019-04-22T06:45:44.958Z,88.00
2019-04-22T06:46:29.909Z,87.70
2019-04-22T06:47:00.594Z,87.80
2019-04-22T06:48:24.052Z,87.60
2019-04-22T06:48:46.020Z,87.30
2019-04-22T06:49:23.898Z,87.30
2019-04-22T06:49:55.472Z,87.30
2019-04-22T06:50:39.904Z,87.30
2019-04-22T06:51:09.521Z,87.00
2019-04-22T06:51:46.532Z,86.90
2019-04-22T06:52:18.281Z,86.90
2019-04-22T06:52:54.571Z,87.10
2019-04-22T06:53:30.133Z,87.40
2019-04-22T06:54:03.036Z,87.00
2019-04-22T06:54:41.601Z,86.70
2019-04-22T06:55:15.170Z,86.90
2019-04-22T06:55:46.569Z,86.70
2019-04-22T06:56:22.361Z,86.90
2019-04-22T06:57:02.096Z,86.50
2019-04-22T06:57:30.910Z,86.70
2019-04-22T06:58:10.680Z,86.70
2019-04-22T06:58:50.619Z,86.40
2019-04-22T06:59:18.430Z,86.30
2019-04-22T07:00:13.618Z,86.70
2019-04-22T07:00:30.553Z,87.00
2019-04-22T07:01:09.746Z,86.70
2019-04-22T07:01:43.244Z,86.50
2019-04-22T07:02:20.599Z,86.40
2019-04-22T07:03:10.734Z,86.30
2019-04-22T07:03:57.029Z,86.00
2019-04-22T07:04:33.763Z,86.00
2019-04-22T07:05:27.485Z,85.90
2019-04-22T07:05:48.910Z,85.60
2019-04-22T07:06:26.492Z,85.90
2019-04-22T07:07:31.185Z,86.10
2019-04-22T07:08:16.287Z,85.80
2019-04-22T07:09:10.924Z,85.50
2019-04-22T07:09:36.920Z,85.50
2019-04-22T07:10:04.022Z,85.60
2019-04-22T07:10:58.281Z,85.60
2019-04-22T07:11:36.046Z,85.60
2019-04-22T07:12:11.561Z,85.30
2019-04-22T07:12:48.736Z,85.30
2019-04-22T07:13:23.559Z,86.00
2019-04-22T07:14:01.891Z,85.10
2019-04-22T07:14:32.074Z,85.40
2019-04-22T07:15:12.013Z,85.40
2019-04-22T07:15:50.352Z,85.40
2019-04-22T07:16:18.597Z,85.10
2019-04-22T07:16:51.316Z,85.10
2019-04-22T07:17:31.053Z,84.80
2019-04-22T07:18:04.822Z,84.80
2019-04-22T07:18:37.281Z,84.40
2019-04-22T07:19:15.149Z,84.70
2019-04-22T07:19:47.191Z,84.90
2019-04-22T07:20:23.727Z,84.70
2019-04-22T07:21:30.525Z,84.30
2019-04-22T07:22:11.209Z,84.00
2019-04-22T07:22:39.966Z,84.10
2019-04-22T07:23:24.791Z,83.80
2019-04-22T07:24:02.481Z,84.00
2019-04-22T07:25:06.192Z,84.00
2019-04-22T07:25:41.089Z,84.00
2019-04-22T07:26:53.007Z,83.80
2019-04-22T07:27:20.611Z,83.70
2019-04-22T07:27:58.561Z,83.80
2019-04-22T07:28:30.904Z,84.10
2019-04-22T07:29:07.517Z,84.10
2019-04-22T07:29:46.780Z,83.60
2019-04-22T07:30:22.235Z,83.40
2019-04-22T07:31:02.404Z,83.50
2019-04-22T07:31:28.527Z,83.70
2019-04-22T07:32:25.270Z,83.40
2019-04-22T07:33:02.400Z,83.50
2019-04-22T07:33:34.826Z,83.50
2019-04-22T07:34:27.859Z,83.70
2019-04-22T07:35:01.454Z,83.10
2019-04-22T07:36:56.586Z,82.80
2019-04-22T07:37:28.198Z,82.90
2019-04-22T07:37:55.589Z,82.40
2019-04-22T07:38:26.625Z,82.50
2019-04-22T07:39:05.728Z,82.80
2019-04-22T07:39:44.243Z,82.60
2019-04-22T07:40:18.327Z,82.70
2019-04-22T07:40:59.432Z,82.60
2019-04-22T07:41:28.054Z,82.20
2019-04-22T07:41:59.183Z,82.10
2019-04-22T07:42:36.646Z,82.30
2019-04-22T07:43:15.514Z,82.40
2019-04-22T07:44:02.949Z,81.80
2019-04-22T07:44:25.842Z,81.80
2019-04-22T07:45:01.108Z,81.80
2019-04-22T07:46:09.584Z,81.70
2019-04-22T07:46:54.681Z,81.80
2019-04-22T07:47:56.724Z,81.90
2019-04-22T07:48:33.468Z,81.50
2019-04-22T07:49:05.241Z,81.40
2019-04-22T07:49:39.496Z,81.40
2019-04-22T07:50:25.407Z,81.40
2019-04-22T07:51:21.570Z,81.90
2019-04-22T07:52:01.432Z,81.00
2019-04-22T07:52:35.235Z,80.80
2019-04-22T07:53:05.458Z,80.90
2019-04-22T07:53:39.434Z,81.00
2019-04-22T07:54:39.711Z,81.20
2019-04-22T07:54:53.055Z,81.20
2019-04-22T07:55:27.320Z,81.30
2019-04-22T07:56:06.738Z,81.30
2019-04-22T07:56:36.526Z,81.60
2019-04-22T07:57:25.453Z,81.50
2019-04-22T07:58:05.245Z,81.30
2019-04-22T07:58:26.136Z,80.70
2019-04-22T07:58:58.325Z,80.70
2019-04-22T07:59:35.229Z,80.50
2019-04-22T08:00:15.926Z,79.80
2019-04-22T08:00:52.747Z,80.20
2019-04-22T08:01:20.362Z,79.70
2019-04-22T08:01:55.921Z,79.00
2019-04-22T08:02:51.706Z,79.00
2019-04-22T08:03:12.152Z,78.70
2019-04-22T08:03:51.667Z,78.70
2019-04-22T08:04:22.899Z,78.90
2019-04-22T08:06:36.210Z,78.30
2019-04-22T08:07:16.121Z,77.90
2019-04-22T08:07:50.550Z,78.10
2019-04-22T08:08:26.039Z,77.80
2019-04-22T08:09:00.388Z,77.60
2019-04-22T08:09:35.634Z,77.40
2019-04-22T08:10:18.912Z,77.80
2019-04-22T08:10:48.474Z,77.40
2019-04-22T08:11:52.476Z,77.30
2019-04-22T08:12:36.243Z,77.10
2019-04-22T08:13:05.734Z,76.60
2019-04-22T08:13:38.804Z,76.80
2019-04-22T08:14:14.651Z,76.70
2019-04-22T08:14:45.629Z,76.70
2019-04-22T08:15:27.394Z,76.50
2019-04-22T08:15:58.145Z,75.90
2019-04-22T08:16:33.496Z,76.20
2019-04-22T08:17:32.423Z,76.20
2019-04-22T08:18:17.481Z,76.70
2019-04-22T08:19:00.736Z,76.90
2019-04-22T08:19:28.733Z,76.70
2019-04-22T08:20:44.074Z,75.90
2019-04-22T08:21:12.389Z,76.30
2019-04-22T08:21:52.161Z,76.60
2019-04-22T08:22:23.364Z,76.40
2019-04-22T08:23:05.963Z,76.00
2019-04-22T08:23:35.481Z,75.80
2019-04-22T08:24:06.380Z,75.80
2019-04-22T08:25:16.489Z,76.30
2019-04-22T08:25:58.014Z,76.10
2019-04-22T08:26:33.527Z,75.40
2019-04-22T08:27:08.685Z,74.70
2019-04-22T08:27:39.526Z,74.10
2019-04-22T08:28:17.800Z,74.00
2019-04-22T08:28:53.295Z,73.70
2019-04-22T08:29:30.070Z,73.40
2019-04-22T08:30:11.902Z,73.40
2019-04-22T08:31:14.870Z,73.40
2019-04-22T08:31:51.932Z,73.20
2019-04-22T08:32:22.027Z,72.70
2019-04-22T08:32:53.105Z,72.60
2019-04-22T08:34:08.220Z,70.80
2019-04-22T08:34:40.827Z,71.00
2019-04-22T08:35:20.951Z,70.90
2019-04-22T08:36:28.180Z,71.80
2019-04-22T08:37:47.918Z,70.90
2019-04-22T08:38:14.989Z,71.00
2019-04-22T08:38:53.959Z,70.70
2019-04-22T08:40:01.944Z,70.60
2019-04-22T08:40:40.464Z,71.00
2019-04-22T08:41:16.395Z,70.90
2019-04-22T08:41:41.492Z,70.30
2019-04-22T08:42:31.816Z,69.90
2019-04-22T08:43:37.793Z,70.20
2019-04-22T08:44:07.641Z,70.80
2019-04-22T08:45:25.318Z,70.00
2019-04-22T08:45:51.118Z,69.90
2019-04-22T08:47:36.126Z,69.00
2019-04-22T08:48:07.644Z,68.40
2019-04-22T08:48:59.054Z,68.60
2019-04-22T08:49:29.968Z,67.80
2019-04-22T08:50:03.236Z,68.00
2019-04-22T08:50:33.921Z,67.80
2019-04-22T08:51:19.242Z,68.00
2019-04-22T08:51:42.802Z,67.90
2019-04-22T08:52:21.108Z,68.00
2019-04-22T08:53:14.296Z,68.20
2019-04-22T08:53:35.870Z,67.70
2019-04-22T08:54:11.827Z,66.80
2019-04-22T08:54:44.598Z,66.80
2019-04-22T08:55:17.964Z,67.30
2019-04-22T08:55:59.574Z,67.80
2019-04-22T08:56:32.526Z,67.80
2019-04-22T08:57:03.148Z,67.80
2019-04-22T08:57:58.510Z,68.00
2019-04-22T08:58:20.929Z,67.60
2019-04-22T08:58:50.857Z,66.30
2019-04-22T08:59:19.858Z,66.30
2019-04-22T09:00:37.375Z,66.00
2019-04-22T09:01:14.665Z,66.10
2019-04-22T09:01:38.116Z,65.10